createdAt,value
2023-12-17T00:00:06.290Z,65.91
2023-12-17T00:02:09.443Z,66.26
2023-12-17T00:04:11.971Z,66.34
2023-12-17T00:06:14.613Z,66.67
2023-12-17T00:08:21.996Z,66.41
2023-12-17T00:10:24.786Z,66.91
2023-12-17T00:12:27.722Z,66.83
2023-12-17T00:14:30.206Z,66.77
2023-12-17T00:16:32.774Z,66.36
2023-12-17T00:18:35.575Z,65.25
2023-12-17T00:20:38.194Z,66.77
2023-12-17T00:22:40.677Z,67.22
2023-12-17T00:24:43.130Z,66.94
2023-12-17T00:26:46.347Z,67.36
2023-12-17T00:28:48.765Z,66.79
2023-12-17T00:30:52.316Z,66.98
2023-12-17T00:32:54.979Z,66.38
2023-12-17T00:34:57.448Z,66.91
2023-12-17T00:37:00.375Z,66.34
2023-12-17T00:39:02.964Z,66.02
2023-12-17T00:41:05.922Z,65.82
2023-12-17T00:43:08.446Z,65.87
2023-12-17T00:45:12.003Z,65.84
2023-12-17T00:47:14.729Z,65.79
2023-12-17T00:49:17.349Z,66.26
2023-12-17T00:51:20.635Z,66.59
2023-12-17T00:53:23.190Z,66.43
2023-12-17T00:55:26.746Z,66.48
2023-12-17T00:57:29.283Z,67.46
2023-12-17T00:59:31.743Z,67.94
2023-12-17T01:01:34.225Z,67.40
2023-12-17T01:03:37.003Z,67.79
2023-12-17T01:05:40.370Z,68.41
2023-12-17T01:07:43.630Z,67.70
2023-12-17T01:09:46.130Z,67.62
2023-12-17T01:11:48.603Z,66.99
2023-12-17T01:13:51.860Z,67.59
2023-12-17T01:15:54.813Z,67.14
2023-12-17T01:17:57.673Z,66.90
2023-12-17T01:20:00.786Z,67.97
2023-12-17T01:22:03.843Z,67.18
2023-12-17T01:24:06.560Z,67.83
2023-12-17T01:26:10.388Z,68.61
2023-12-17T01:28:12.992Z,69.19
2023-12-17T01:30:16.067Z,69.12
2023-12-17T01:32:18.578Z,68.85
2023-12-17T01:34:21.921Z,68.45
2023-12-17T01:36:24.933Z,68.81
2023-12-17T01:38:27.923Z,68.48
2023-12-17T01:40:32.348Z,68.66
2023-12-17T01:42:35.318Z,67.82
2023-12-17T01:44:37.742Z,67.79
2023-12-17T01:46:41.653Z,67.28
2023-12-17T01:48:45.331Z,67.49
2023-12-17T01:50:49.326Z,67.76
2023-12-17T01:52:52.067Z,67.61
2023-12-17T01:54:54.546Z,69.08
2023-12-17T01:56:57.673Z,68.84
2023-12-17T01:59:00.420Z,68.31
2023-12-17T02:01:03.610Z,67.96
2023-12-17T02:03:07.158Z,68.47
2023-12-17T02:05:10.928Z,68.19
2023-12-17T02:07:13.964Z,68.49
2023-12-17T02:09:16.762Z,69.47
2023-12-17T02:11:19.293Z,70.12
2023-12-17T02:13:21.740Z,70.53
2023-12-17T02:15:24.245Z,69.57
2023-12-17T02:17:35.599Z,70.13
2023-12-17T02:19:38.133Z,69.39
2023-12-17T02:21:40.722Z,69.94
2023-12-17T02:23:43.272Z,70.44
2023-12-17T02:25:45.924Z,70.82
2023-12-17T02:27:49.206Z,69.74
2023-12-17T02:29:52.726Z,69.57
2023-12-17T02:31:55.187Z,69.53
2023-12-17T02:33:57.810Z,69.48
2023-12-17T02:36:00.838Z,69.92
2023-12-17T02:38:03.346Z,69.34
2023-12-17T02:40:06.440Z,69.62
2023-12-17T02:42:09.507Z,70.23
2023-12-17T02:44:11.997Z,70.66
2023-12-17T02:46:14.604Z,70.21
2023-12-17T02:48:17.335Z,70.57
2023-12-17T02:50:19.869Z,69.83
2023-12-17T02:52:23.217Z,69.28
2023-12-17T02:54:25.930Z,69.64
2023-12-17T02:56:28.402Z,69.69
2023-12-17T02:58:30.875Z,69.51
2023-12-17T03:00:33.486Z,69.37
2023-12-17T03:02:35.973Z,69.36
2023-12-17T03:04:38.408Z,68.38
2023-12-17T03:06:42.385Z,69.66
2023-12-17T03:08:44.848Z,69.99
2023-12-17T03:10:47.351Z,69.55
2023-12-17T03:12:49.852Z,69.19
2023-12-17T03:14:52.368Z,69.84
2023-12-17T03:16:54.813Z,69.90
2023-12-17T03:18:58.585Z,69.31
2023-12-17T03:21:01.857Z,69.31
2023-12-17T03:23:04.280Z,69.23
2023-12-17T03:25:07.614Z,69.94
2023-12-17T03:27:10.845Z,69.30
2023-12-17T03:29:13.271Z,69.31
2023-12-17T03:31:16.947Z,69.94
2023-12-17T03:33:19.762Z,70.09
2023-12-17T03:35:22.379Z,70.15
2023-12-17T03:37:24.858Z,70.44
2023-12-17T03:39:27.338Z,69.40
2023-12-17T03:41:30.507Z,69.31
2023-12-17T03:43:33.891Z,69.38
2023-12-17T03:45:37.178Z,69.80
2023-12-17T03:47:49.395Z,69.58
2023-12-17T03:49:51.925Z,69.52
2023-12-17T03:51:54.391Z,69.16
2023-12-17T03:53:57.053Z,69.66
2023-12-17T03:56:01.014Z,69.75
2023-12-17T03:58:03.480Z,69.89
2023-12-17T04:00:06.713Z,70.39
2023-12-17T04:02:09.770Z,69.65
2023-12-17T04:04:12.233Z,69.68
2023-12-17T04:06:14.784Z,70.15
2023-12-17T04:08:17.694Z,70.78
2023-12-17T04:10:20.810Z,70.11
2023-12-17T04:12:24.014Z,69.97
2023-12-17T04:14:26.805Z,69.58
2023-12-17T04:16:29.334Z,70.67
2023-12-17T04:18:31.980Z,71.02
2023-12-17T04:20:34.534Z,70.15
2023-12-17T04:22:37.846Z,70.80
2023-12-17T04:24:40.964Z,71.41
2023-12-17T04:26:44.165Z,71.74
2023-12-17T04:28:47.321Z,71.77
2023-12-17T04:30:49.884Z,71.85
2023-12-17T04:32:52.569Z,71.93
2023-12-17T04:34:57.141Z,72.28
2023-12-17T04:37:01.299Z,72.18
2023-12-17T04:39:04.261Z,72.08
2023-12-17T04:41:07.057Z,71.94
2023-12-17T04:43:09.501Z,71.40
2023-12-17T04:45:11.976Z,71.30
2023-12-17T04:47:15.268Z,71.82
2023-12-17T04:49:18.386Z,72.54
2023-12-17T04:51:20.994Z,72.39
2023-12-17T04:53:24.223Z,73.24
2023-12-17T04:55:26.930Z,73.30
2023-12-17T04:57:29.423Z,73.03
2023-12-17T04:59:31.945Z,73.59
2023-12-17T05:01:34.364Z,73.47
2023-12-17T05:03:37.842Z,73.78
2023-12-17T05:05:40.343Z,73.40
2023-12-17T05:07:43.655Z,73.18
2023-12-17T05:09:46.123Z,72.73
2023-12-17T05:11:49.268Z,72.01
2023-12-17T05:13:52.494Z,72.68
2023-12-17T05:15:55.019Z,73.04
2023-12-17T05:18:09.539Z,73.34
2023-12-17T05:20:12.285Z,73.87
2023-12-17T05:22:15.200Z,73.50
2023-12-17T05:24:17.646Z,74.55
2023-12-17T05:26:20.067Z,74.10
2023-12-17T05:28:22.569Z,74.74
2023-12-17T05:30:25.540Z,74.64
2023-12-17T05:32:28.963Z,74.48
2023-12-17T05:34:31.582Z,74.58
2023-12-17T05:36:34.459Z,74.33
2023-12-17T05:38:36.883Z,74.79
2023-12-17T05:40:39.407Z,74.39
2023-12-17T05:42:41.878Z,74.66
2023-12-17T05:44:45.149Z,74.39
2023-12-17T05:46:47.655Z,74.11
2023-12-17T05:48:50.721Z,74.21
2023-12-17T05:50:54.049Z,74.51
2023-12-17T05:52:57.082Z,74.75
2023-12-17T05:54:59.969Z,74.76
2023-12-17T05:57:02.774Z,74.64
2023-12-17T05:59:05.315Z,74.24
2023-12-17T06:01:09.542Z,74.70
2023-12-17T06:03:13.566Z,74.13
2023-12-17T06:05:16.155Z,74.74
2023-12-17T06:07:19.795Z,73.86
2023-12-17T06:09:23.070Z,74.26
2023-12-17T06:11:25.557Z,74.79
2023-12-17T06:13:28.393Z,74.25
2023-12-17T06:15:30.882Z,74.05
2023-12-17T06:17:33.737Z,74.46
2023-12-17T06:19:38.485Z,74.64
2023-12-17T06:21:41.059Z,74.46
2023-12-17T06:23:43.564Z,74.75
2023-12-17T06:25:45.973Z,74.40
2023-12-17T06:27:50.174Z,74.60
2023-12-17T06:29:53.851Z,75.22
2023-12-17T06:31:56.285Z,74.61
2023-12-17T06:33:59.048Z,74.64
2023-12-17T06:36:01.655Z,74.79
2023-12-17T06:38:04.114Z,74.95
2023-12-17T06:40:09.275Z,75.31
2023-12-17T06:42:11.928Z,75.15
2023-12-17T06:44:14.387Z,74.88
2023-12-17T06:46:20.137Z,75.33
2023-12-17T06:48:22.809Z,75.30
2023-12-17T06:50:26.111Z,75.43
2023-12-17T06:52:29.125Z,75.01
2023-12-17T06:54:32.337Z,75.39
2023-12-17T06:56:34.894Z,75.50
2023-12-17T06:58:38.164Z,76.15
2023-12-17T07:00:41.039Z,75.82
2023-12-17T07:02:43.776Z,76.38
2023-12-17T07:04:46.358Z,75.49
2023-12-17T07:06:49.527Z,75.28
2023-12-17T07:08:52.877Z,75.98
2023-12-17T07:10:55.442Z,75.81
2023-12-17T07:12:58.006Z,75.37
2023-12-17T07:15:00.573Z,75.14
2023-12-17T07:17:03.041Z,75.03
2023-12-17T07:19:05.842Z,75.43
2023-12-17T07:21:08.494Z,75.01
2023-12-17T07:23:10.976Z,75.43
2023-12-17T07:25:13.531Z,75.22
2023-12-17T07:27:16.137Z,75.17
2023-12-17T07:29:18.611Z,75.46
2023-12-17T07:31:21.222Z,75.58
2023-12-17T07:33:23.897Z,75.18
2023-12-17T07:35:26.427Z,74.93
2023-12-17T07:37:28.867Z,76.08
2023-12-17T07:39:31.457Z,75.54
2023-12-17T07:41:34.913Z,75.37
2023-12-17T07:43:38.533Z,75.75
2023-12-17T07:45:40.949Z,75.08
2023-12-17T07:47:45.541Z,74.78
2023-12-17T07:49:48.968Z,75.48
2023-12-17T07:51:51.847Z,75.21
2023-12-17T07:53:55.304Z,74.69
2023-12-17T07:55:59.309Z,75.58
2023-12-17T07:58:01.813Z,75.69
2023-12-17T08:00:05.525Z,74.97
2023-12-17T08:02:08.521Z,75.17
2023-12-17T08:04:11.273Z,74.95
2023-12-17T08:06:13.891Z,74.48
2023-12-17T08:08:16.998Z,75.57
2023-12-17T08:10:19.722Z,75.15
2023-12-17T08:12:22.955Z,75.08
2023-12-17T08:14:26.160Z,75.03
2023-12-17T08:16:29.186Z,76.20
2023-12-17T08:18:32.093Z,76.04
2023-12-17T08:20:35.084Z,76.61
2023-12-17T08:22:37.512Z,76.43
2023-12-17T08:24:39.928Z,76.20
2023-12-17T08:26:42.790Z,76.27
2023-12-17T08:28:45.262Z,75.58
2023-12-17T08:30:48.527Z,76.15
2023-12-17T08:32:51.540Z,76.30
2023-12-17T08:34:54.246Z,76.55
2023-12-17T08:37:00.163Z,76.25
2023-12-17T08:39:03.184Z,76.59
2023-12-17T08:41:05.891Z,76.39
2023-12-17T08:43:11.213Z,75.83
2023-12-17T08:45:13.723Z,75.79
2023-12-17T08:47:16.197Z,76.18
2023-12-17T08:49:19.682Z,75.68
2023-12-17T08:51:23.578Z,76.43
2023-12-17T08:53:28.847Z,76.57
2023-12-17T08:55:31.975Z,76.92
2023-12-17T08:57:34.543Z,76.09
2023-12-17T08:59:37.023Z,76.72
2023-12-17T09:01:39.870Z,76.74
2023-12-17T09:03:42.862Z,76.64
2023-12-17T09:05:46.097Z,76.89
2023-12-17T09:07:48.657Z,76.20
2023-12-17T09:09:51.492Z,76.20
2023-12-17T09:11:54.732Z,76.34
2023-12-17T09:13:57.903Z,76.12
2023-12-17T09:16:00.471Z,75.83
2023-12-17T09:18:03.050Z,76.10
2023-12-17T09:20:06.339Z,75.31
2023-12-17T09:22:09.322Z,75.07
2023-12-17T09:24:11.817Z,75.41
2023-12-17T09:26:14.953Z,76.31
2023-12-17T09:28:17.643Z,75.74
2023-12-17T09:30:20.364Z,75.69
2023-12-17T09:32:22.845Z,75.29
2023-12-17T09:34:25.553Z,75.47
2023-12-17T09:36:29.532Z,75.69
2023-12-17T09:38:34.002Z,76.36
2023-12-17T09:40:36.613Z,76.31
2023-12-17T09:42:41.275Z,76.87
2023-12-17T09:44:44.666Z,76.51
2023-12-17T09:46:47.884Z,76.01
2023-12-17T09:48:51.024Z,76.32
2023-12-17T09:50:54.208Z,75.86
2023-12-17T09:52:57.341Z,76.35
2023-12-17T09:55:05.974Z,76.31
2023-12-17T09:57:09.809Z,76.09
2023-12-17T09:59:12.842Z,76.66
2023-12-17T10:01:15.763Z,76.62
2023-12-17T10:03:19.174Z,76.43
2023-12-17T10:05:23.394Z,76.25
2023-12-17T10:07:26.651Z,75.87
2023-12-17T10:09:29.452Z,75.40
2023-12-17T10:11:32.984Z,76.55
2023-12-17T10:13:35.465Z,76.02
2023-12-17T10:15:38.463Z,75.62
2023-12-17T10:17:42.633Z,76.33
2023-12-17T10:19:51.989Z,75.99
2023-12-17T10:21:54.688Z,76.75
2023-12-17T10:23:57.149Z,76.64
2023-12-17T10:26:05.092Z,77.09
2023-12-17T10:28:10.419Z,76.70
2023-12-17T10:30:13.780Z,76.97
2023-12-17T10:32:16.277Z,77.21
2023-12-17T10:34:22.152Z,76.42
2023-12-17T10:36:26.050Z,76.78
2023-12-17T10:38:29.326Z,77.13
2023-12-17T10:40:32.280Z,76.92
2023-12-17T10:42:37.324Z,76.90
2023-12-17T10:44:42.797Z,76.96
2023-12-17T10:46:47.174Z,76.90
2023-12-17T10:48:50.689Z,76.81
2023-12-17T10:50:53.800Z,76.54
2023-12-17T10:52:56.431Z,77.11
2023-12-17T10:54:58.955Z,77.38
2023-12-17T10:57:03.861Z,76.99
2023-12-17T10:59:10.338Z,77.56
2023-12-17T11:01:12.994Z,77.02
2023-12-17T11:03:17.108Z,76.84
2023-12-17T11:05:19.562Z,76.79
2023-12-17T11:07:31.623Z,77.02
2023-12-17T11:09:43.188Z,76.48
2023-12-17T11:11:49.308Z,76.79
2023-12-17T11:13:52.972Z,76.70
2023-12-17T11:15:56.255Z,76.72
2023-12-17T11:18:00.800Z,76.79
2023-12-17T11:20:05.113Z,76.66
2023-12-17T11:22:09.302Z,76.67
2023-12-17T11:24:12.401Z,77.11
2023-12-17T11:26:16.705Z,76.87
2023-12-17T11:28:27.533Z,77.56
2023-12-17T11:30:34.704Z,76.77
2023-12-17T11:32:37.558Z,77.22
2023-12-17T11:34:41.558Z,77.23
2023-12-17T11:36:45.118Z,77.11
2023-12-17T11:38:47.918Z,77.31
2023-12-17T11:40:50.683Z,77.59
2023-12-17T11:43:00.174Z,77.37
2023-12-17T11:45:03.701Z,77.28
2023-12-17T11:47:06.533Z,77.07
2023-12-17T11:49:09.056Z,77.56
2023-12-17T11:51:11.610Z,76.92
2023-12-17T11:53:15.882Z,76.83
2023-12-17T11:55:19.076Z,76.78
2023-12-17T11:57:24.795Z,76.46
2023-12-17T11:59:37.131Z,76.62
2023-12-17T12:01:39.956Z,76.92
2023-12-17T12:03:43.720Z,77.50
2023-12-17T12:05:46.355Z,76.66
2023-12-17T12:07:53.906Z,76.40
2023-12-17T12:10:09.013Z,76.86
2023-12-17T12:12:21.055Z,77.04
2023-12-17T12:14:23.807Z,77.06
2023-12-17T12:16:27.378Z,77.49
2023-12-17T12:18:30.250Z,76.95
2023-12-17T12:20:39.268Z,76.67
2023-12-17T12:22:49.422Z,76.88
2023-12-17T12:24:56.901Z,76.56
2023-12-17T12:26:59.396Z,76.29
2023-12-17T12:29:06.092Z,76.07
2023-12-17T12:31:12.110Z,75.92
2023-12-17T12:33:16.608Z,76.07
2023-12-17T12:35:31.148Z,76.21
2023-12-17T12:37:38.236Z,76.08
2023-12-17T12:39:59.633Z,76.31
2023-12-17T12:42:06.091Z,76.62
2023-12-17T12:44:09.172Z,76.74
2023-12-17T12:46:11.668Z,76.67
2023-12-17T12:48:27.958Z,76.48
2023-12-17T12:50:31.933Z,76.75
2023-12-17T12:52:34.396Z,76.76
2023-12-17T12:54:37.462Z,76.09
2023-12-17T12:56:40.407Z,76.29
2023-12-17T12:58:43.704Z,75.69
2023-12-17T13:00:51.573Z,75.75
2023-12-17T13:02:56.300Z,75.96
2023-12-17T13:04:59.179Z,75.89
2023-12-17T13:07:01.704Z,76.18
2023-12-17T13:09:06.568Z,76.93
2023-12-17T13:11:09.802Z,76.76
2023-12-17T13:13:12.249Z,77.08
2023-12-17T13:15:14.841Z,77.52
2023-12-17T13:17:17.305Z,77.44
2023-12-17T13:19:23.604Z,77.31
2023-12-17T13:21:26.675Z,77.42
2023-12-17T13:23:29.160Z,77.51
2023-12-17T13:25:32.359Z,77.38
2023-12-17T13:27:34.889Z,77.69
2023-12-17T13:29:37.437Z,77.47
2023-12-17T13:31:39.885Z,77.59
2023-12-17T13:33:42.442Z,77.25
2023-12-17T13:35:44.942Z,77.25
2023-12-17T13:37:48.497Z,76.89
2023-12-17T13:39:51.031Z,76.67
2023-12-17T13:41:59.399Z,76.26
2023-12-17T13:44:04.673Z,76.21
2023-12-17T13:46:07.899Z,76.45
2023-12-17T13:48:14.125Z,76.08
2023-12-17T13:50:19.812Z,76.28
2023-12-17T13:52:23.711Z,76.48
2023-12-17T13:54:26.397Z,76.13
2023-12-17T13:56:33.638Z,76.47
2023-12-17T13:58:41.220Z,76.38
2023-12-17T14:00:43.806Z,76.21
2023-12-17T14:02:46.377Z,75.80
2023-12-17T14:04:49.010Z,76.37
2023-12-17T14:06:51.569Z,76.44
2023-12-17T14:08:54.784Z,76.44
2023-12-17T14:10:57.586Z,76.48
2023-12-17T14:13:01.967Z,76.53
2023-12-17T14:15:06.238Z,76.57
2023-12-17T14:17:09.053Z,76.56
2023-12-17T14:19:12.750Z,76.27
2023-12-17T14:21:15.291Z,76.24
2023-12-17T14:23:18.640Z,76.17
2023-12-17T14:25:21.192Z,76.06
2023-12-17T14:27:23.700Z,76.25
2023-12-17T14:29:26.451Z,76.13
2023-12-17T14:31:30.826Z,76.29
2023-12-17T14:33:33.404Z,76.31
2023-12-17T14:35:35.928Z,76.25
2023-12-17T14:37:38.495Z,76.20
2023-12-17T14:39:41.774Z,76.18
2023-12-17T14:41:44.270Z,76.42
2023-12-17T14:43:47.584Z,76.79
2023-12-17T14:45:50.060Z,76.54
2023-12-17T14:47:52.681Z,76.37
2023-12-17T14:49:55.238Z,76.91
2023-12-17T14:51:57.856Z,76.48
2023-12-17T14:54:01.220Z,76.83
2023-12-17T14:56:03.871Z,77.15
2023-12-17T14:58:09.444Z,76.97
2023-12-17T15:00:12.862Z,77.04
2023-12-17T15:02:15.433Z,76.99
2023-12-17T15:04:17.901Z,77.10
2023-12-17T15:06:20.371Z,76.98
2023-12-17T15:08:23.517Z,76.74
2023-12-17T15:10:25.952Z,77.19
2023-12-17T15:12:28.701Z,77.85
2023-12-17T15:14:31.169Z,76.92
2023-12-17T15:16:33.678Z,76.95
2023-12-17T15:18:38.981Z,76.87
2023-12-17T15:20:43.942Z,76.87
2023-12-17T15:22:47.756Z,77.23
2023-12-17T15:24:50.442Z,77.08
2023-12-17T15:26:52.968Z,76.83
2023-12-17T15:28:55.413Z,77.22
2023-12-17T15:30:57.973Z,77.09
2023-12-17T15:33:00.719Z,77.00
2023-12-17T15:35:03.264Z,77.28
2023-12-17T15:37:05.827Z,76.99
2023-12-17T15:39:08.626Z,76.44
2023-12-17T15:41:21.953Z,77.18
2023-12-17T15:43:24.498Z,77.49
2023-12-17T15:45:27.048Z,77.37
2023-12-17T15:47:30.317Z,76.91
2023-12-17T15:49:32.864Z,77.27
2023-12-17T15:51:35.381Z,76.86
2023-12-17T15:53:39.559Z,77.04
2023-12-17T15:55:42.196Z,76.87
2023-12-17T15:57:45.450Z,77.24
2023-12-17T15:59:48.136Z,77.00
2023-12-17T16:01:50.591Z,76.83
2023-12-17T16:03:54.680Z,76.90
2023-12-17T16:05:57.732Z,77.55
2023-12-17T16:08:01.615Z,77.33
2023-12-17T16:10:04.213Z,77.29
2023-12-17T16:12:07.216Z,76.99
2023-12-17T16:14:09.753Z,77.10
2023-12-17T16:16:19.913Z,76.69
2023-12-17T16:18:22.972Z,76.75
2023-12-17T16:20:26.047Z,76.79
2023-12-17T16:22:30.307Z,76.58
2023-12-17T16:24:32.764Z,76.59
2023-12-17T16:26:35.348Z,76.45
2023-12-17T16:28:38.406Z,76.23
2023-12-17T16:30:45.791Z,76.51
2023-12-17T16:32:48.531Z,75.96
2023-12-17T16:34:50.992Z,75.91
2023-12-17T16:36:53.457Z,75.83
2023-12-17T16:38:58.076Z,76.25
2023-12-17T16:41:00.570Z,75.92
2023-12-17T16:43:06.153Z,75.90
2023-12-17T16:45:09.155Z,75.51
2023-12-17T16:47:11.706Z,75.71
2023-12-17T16:49:14.438Z,75.56
2023-12-17T16:51:17.759Z,75.44
2023-12-17T16:53:21.314Z,75.18
2023-12-17T16:55:25.467Z,75.30
2023-12-17T16:57:28.017Z,75.11
2023-12-17T16:59:30.648Z,75.17
2023-12-17T17:01:33.177Z,75.23
2023-12-17T17:03:36.016Z,75.17
2023-12-17T17:05:38.675Z,75.07
2023-12-17T17:07:41.596Z,75.42
2023-12-17T17:09:44.724Z,74.77
2023-12-17T17:11:47.876Z,74.79
2023-12-17T17:13:50.381Z,75.09
2023-12-17T17:15:53.185Z,74.79
2023-12-17T17:17:55.817Z,75.11
2023-12-17T17:19:59.226Z,75.50
2023-12-17T17:22:02.338Z,74.80
2023-12-17T17:24:05.876Z,75.16
2023-12-17T17:26:09.083Z,75.14
2023-12-17T17:28:11.594Z,75.11
2023-12-17T17:30:14.446Z,74.98
2023-12-17T17:32:17.380Z,75.58
2023-12-17T17:34:20.239Z,75.65
2023-12-17T17:36:22.877Z,76.09
2023-12-17T17:38:25.481Z,75.91
2023-12-17T17:40:27.917Z,75.43
2023-12-17T17:42:30.449Z,75.75
2023-12-17T17:44:32.896Z,75.60
2023-12-17T17:46:35.456Z,75.67
2023-12-17T17:48:38.758Z,75.68
2023-12-17T17:50:41.315Z,76.08
2023-12-17T17:52:44.119Z,75.82
2023-12-17T17:54:46.944Z,75.98
2023-12-17T17:56:49.609Z,75.75
2023-12-17T17:58:52.085Z,75.41
2023-12-17T18:00:57.831Z,75.19
2023-12-17T18:03:01.475Z,75.82
2023-12-17T18:05:04.698Z,75.45
2023-12-17T18:07:07.543Z,75.96
2023-12-17T18:09:10.464Z,75.88
2023-12-17T18:11:19.118Z,75.82
2023-12-17T18:13:23.530Z,76.10
2023-12-17T18:15:27.952Z,76.12
2023-12-17T18:17:30.747Z,75.74
2023-12-17T18:19:33.394Z,75.74
2023-12-17T18:21:39.176Z,76.16
2023-12-17T18:23:42.072Z,75.62
2023-12-17T18:25:46.016Z,75.95
2023-12-17T18:27:48.400Z,75.69
2023-12-17T18:29:50.828Z,75.75
2023-12-17T18:31:53.246Z,75.86
2023-12-17T18:33:57.992Z,75.77
2023-12-17T18:36:01.277Z,76.29
2023-12-17T18:38:04.146Z,75.80
2023-12-17T18:40:07.398Z,75.62
2023-12-17T18:42:10.394Z,76.15
2023-12-17T18:44:12.948Z,75.82
2023-12-17T18:46:16.513Z,76.40
2023-12-17T18:48:19.329Z,75.93
2023-12-17T18:50:22.134Z,76.19
2023-12-17T18:52:27.464Z,76.05
2023-12-17T18:54:30.345Z,76.26
2023-12-17T18:56:34.107Z,76.10
2023-12-17T18:58:36.615Z,76.40
2023-12-17T19:00:39.272Z,76.10
2023-12-17T19:02:44.287Z,75.79
2023-12-17T19:04:47.017Z,76.29
2023-12-17T19:06:49.904Z,76.69
2023-12-17T19:08:52.504Z,76.50
2023-12-17T19:10:56.185Z,75.98
2023-12-17T19:12:58.666Z,76.20
2023-12-17T19:15:01.928Z,76.10
2023-12-17T19:17:07.770Z,76.10
2023-12-17T19:19:13.048Z,76.33
2023-12-17T19:21:17.158Z,76.56
2023-12-17T19:23:21.898Z,76.40
2023-12-17T19:25:24.837Z,76.28
2023-12-17T19:27:27.792Z,76.17
2023-12-17T19:29:33.689Z,76.64
2023-12-17T19:31:36.531Z,76.79
2023-12-17T19:33:39.499Z,76.90
2023-12-17T19:35:45.405Z,76.31
2023-12-17T19:37:48.234Z,76.81
2023-12-17T19:39:54.078Z,76.97
2023-12-17T19:41:56.648Z,76.95
2023-12-17T19:43:59.603Z,76.66
2023-12-17T19:46:02.122Z,76.58
2023-12-17T19:48:05.593Z,76.39
2023-12-17T19:50:08.969Z,76.90
2023-12-17T19:52:12.880Z,77.07
2023-12-17T19:54:15.899Z,76.42
2023-12-17T19:56:19.891Z,76.44
2023-12-17T19:58:23.552Z,76.58
2023-12-17T20:00:26.388Z,76.18
2023-12-17T20:02:29.277Z,76.86
2023-12-17T20:04:31.722Z,77.02
2023-12-17T20:06:34.242Z,77.06
2023-12-17T20:08:40.336Z,76.92
2023-12-17T20:10:47.057Z,76.78
2023-12-17T20:12:49.647Z,76.83
2023-12-17T20:14:52.337Z,77.04
2023-12-17T20:16:54.799Z,76.94
2023-12-17T20:18:57.429Z,76.95
2023-12-17T20:21:02.321Z,76.84
2023-12-17T20:23:05.325Z,76.96
2023-12-17T20:25:09.061Z,77.06
2023-12-17T20:27:12.333Z,76.84
2023-12-17T20:29:17.488Z,77.03
2023-12-17T20:31:21.737Z,76.80
2023-12-17T20:33:24.431Z,76.35
2023-12-17T20:35:27.493Z,76.94
2023-12-17T20:37:29.956Z,77.12
2023-12-17T20:39:33.196Z,76.82
2023-12-17T20:41:35.680Z,77.18
2023-12-17T20:44:04.197Z,77.32
2023-12-17T20:46:07.459Z,77.10
2023-12-17T20:48:17.110Z,77.10
2023-12-17T20:50:19.819Z,77.00
2023-12-17T20:52:22.710Z,76.61
2023-12-17T20:54:25.934Z,77.29
2023-12-17T20:56:30.293Z,77.13
2023-12-17T20:58:32.800Z,77.26
2023-12-17T21:00:35.703Z,77.47
2023-12-17T21:02:38.350Z,77.03
2023-12-17T21:04:41.646Z,77.71
2023-12-17T21:06:45.044Z,77.32
2023-12-17T21:08:47.501Z,77.69
2023-12-17T21:10:49.986Z,77.38
2023-12-17T21:12:52.905Z,77.42
2023-12-17T21:14:55.964Z,77.14
2023-12-17T21:16:58.455Z,76.95
2023-12-17T21:19:01.008Z,77.19
2023-12-17T21:21:03.983Z,76.84
2023-12-17T21:23:08.401Z,77.34
2023-12-17T21:25:11.013Z,76.92
2023-12-17T21:27:36.966Z,76.87
2023-12-17T21:29:39.461Z,77.88
2023-12-17T21:31:42.098Z,77.55
2023-12-17T21:33:44.755Z,77.94
2023-12-17T21:35:47.288Z,77.42
2023-12-17T21:37:49.863Z,77.73
2023-12-17T21:39:52.311Z,77.56
2023-12-17T21:41:58.839Z,77.39
2023-12-17T21:44:02.360Z,77.70
2023-12-17T21:46:04.981Z,77.75
2023-12-17T21:48:07.854Z,77.16
2023-12-17T21:50:11.371Z,77.70
2023-12-17T21:52:22.581Z,77.91
2023-12-17T21:54:35.693Z,77.52
2023-12-17T21:56:38.438Z,77.24
2023-12-17T21:58:41.703Z,77.59
2023-12-17T22:00:44.267Z,77.41
2023-12-17T22:02:47.187Z,77.30
2023-12-17T22:04:50.496Z,77.24
2023-12-17T22:06:53.580Z,76.74
2023-12-17T22:09:01.081Z,77.88
2023-12-17T22:11:09.890Z,77.25
2023-12-17T22:13:13.472Z,77.77
2023-12-17T22:15:19.065Z,77.52
2023-12-17T22:17:21.606Z,77.62
2023-12-17T22:19:24.614Z,77.71
2023-12-17T22:21:29.170Z,77.48
2023-12-17T22:23:32.588Z,76.98
2023-12-17T22:25:35.377Z,76.68
2023-12-17T22:27:37.937Z,76.46
2023-12-17T22:29:40.441Z,77.42
2023-12-17T22:31:43.826Z,77.70
2023-12-17T22:33:46.933Z,77.26
2023-12-17T22:35:49.449Z,76.98
2023-12-17T22:37:52.383Z,77.50
2023-12-17T22:39:54.865Z,76.74
2023-12-17T22:41:57.970Z,77.19
2023-12-17T22:44:01.206Z,76.99
2023-12-17T22:46:04.641Z,77.82
2023-12-17T22:48:07.820Z,76.92
2023-12-17T22:50:12.034Z,76.55
2023-12-17T22:52:15.323Z,77.12
2023-12-17T22:54:19.068Z,76.72
2023-12-17T22:56:21.609Z,77.11
2023-12-17T22:58:24.594Z,77.71
2023-12-17T23:00:27.214Z,77.24
2023-12-17T23:02:30.488Z,76.30
2023-12-17T23:04:33.141Z,75.74
2023-12-17T23:06:36.517Z,77.47
2023-12-17T23:08:39.101Z,76.59
2023-12-17T23:10:41.651Z,77.25
2023-12-17T23:12:44.316Z,77.51
2023-12-17T23:14:48.321Z,77.17
2023-12-17T23:16:51.641Z,77.68
2023-12-17T23:18:54.188Z,77.99
2023-12-17T23:20:57.419Z,77.06
2023-12-17T23:23:00.896Z,77.50
2023-12-17T23:25:03.424Z,77.25
2023-12-17T23:27:06.545Z,76.85
2023-12-17T23:29:09.055Z,76.81
2023-12-17T23:31:11.649Z,76.90
2023-12-17T23:33:14.290Z,76.12
2023-12-17T23:35:17.478Z,76.83
2023-12-17T23:37:20.692Z,76.17
2023-12-17T23:39:24.115Z,76.72
2023-12-17T23:41:26.691Z,75.81
2023-12-17T23:43:29.180Z,76.18
2023-12-17T23:45:31.760Z,76.49
2023-12-17T23:47:34.589Z,76.39
2023-12-17T23:49:37.589Z,76.31
2023-12-17T23:51:40.595Z,76.97
2023-12-17T23:53:43.655Z,76.34
2023-12-17T23:55:46.572Z,76.40
2023-12-17T23:57:49.242Z,77.08
2023-12-17T23:59:52.333Z,75.86
